Time;durP1;ratioP1;P1;durP2;ratioP2;P2;SDS_P1;SDS_P2;PMS_P1;PMS_P2;Temp;Humidity;BMP_temperature;BMP_pressure;BME280_temperature;BME280_humidity;BME280_pressure;Samples;Min_cycle;Max_cycle;Signal;HPM_P1;HPM_P2
2023/01/01 00:04:31;;;;;;;36.72;14.32;;;13.90;99.90;;;;;;10485827;28;20150;-28
2023/01/01 00:14:52;;;;;;;21.17;7.85;;;14.30;99.90;;;;;;10464226;28;20064;-26
2023/01/01 00:19:56;;;;;;;25.70;8.68;;;14.40;99.90;;;;;;10468032;28;20463;-26
2023/01/01 00:24:58;;;;;;;26.60;9.80;;;14.20;99.90;;;;;;10491529;28;20053;-29
2023/01/01 00:29:59;;;;;;;29.42;10.75;;;14.20;99.90;;;;;;10494365;28;20052;-26
2023/01/01 00:35:03;;;;;;;29.42;11.82;;;14.30;99.90;;;;;;10501244;28;20092;-25
2023/01/01 00:40:06;;;;;;;20.50;9.23;;;14.20;99.90;;;;;;10487477;28;20105;-27
2023/01/01 00:45:09;;;;;;;23.50;11.63;;;14.50;99.90;;;;;;10489174;28;20098;-26
2023/01/01 00:50:12;;;;;;;30.52;11.43;;;14.30;99.90;;;;;;10480608;28;20144;-27
2023/01/01 00:55:14;;;;;;;25.58;8.15;;;14.20;99.90;;;;;;10493663;28;20477;-27
2023/01/01 01:00:17;;;;;;;15.40;6.80;;;14.00;99.90;;;;;;10493753;28;20049;-25
2023/01/01 01:05:20;;;;;;;23.95;5.90;;;14.10;99.90;;;;;;10468690;28;20520;-26
2023/01/01 01:10:22;;;;;;;19.13;4.65;;;13.90;99.90;;;;;;10487215;28;20053;-27
2023/01/01 01:15:24;;;;;;;17.57;4.27;;;14.00;99.90;;;;;;10477509;28;20111;-30
2023/01/01 01:20:27;;;;;;;14.10;3.60;;;14.10;99.90;;;;;;10494200;28;20686;-26
2023/01/01 01:25:29;;;;;;;9.93;4.68;;;14.50;99.90;;;;;;10482335;28;20394;-27
2023/01/01 01:30:31;;;;;;;24.27;3.07;;;14.20;99.90;;;;;;10486932;28;20055;-27
2023/01/01 01:35:34;;;;;;;14.20;4.43;;;14.20;99.90;;;;;;10470415;28;20462;-27
2023/01/01 01:40:36;;;;;;;11.57;2.97;;;14.20;99.90;;;;;;10473606;28;20052;-27
2023/01/01 01:45:38;;;;;;;11.40;3.17;;;14.40;99.90;;;;;;10490838;28;20465;-26
2023/01/01 01:50:44;;;;;;;10.23;3.03;;;14.50;99.90;;;;;;10493290;28;20127;-26
2023/01/01 01:55:50;;;;;;;14.82;2.55;;;14.80;99.90;;;;;;10493377;28;20071;-26
2023/01/01 02:00:53;;;;;;;12.73;2.20;;;14.40;99.90;;;;;;10472046;28;20133;-26
2023/01/01 02:05:57;;;;;;;10.82;2.42;;;14.30;99.90;;;;;;10479025;28;20202;-25
2023/01/01 02:10:59;;;;;;;7.68;2.70;;;14.20;99.90;;;;;;10482711;28;20117;-26
2023/01/01 02:16:07;;;;;;;8.03;2.67;;;14.50;99.90;;;;;;10491943;28;20052;-25
2023/01/01 02:21:14;;;;;;;9.40;2.00;;;14.30;99.90;;;;;;10497152;28;20076;-25
2023/01/01 02:26:41;;;;;;;12.13;2.28;;;14.50;99.70;;;;;;10478853;28;20053;-25
2023/01/01 02:31:50;;;;;;;16.88;2.88;;;14.20;99.90;;;;;;10478453;28;20076;-27
2023/01/01 02:36:55;;;;;;;9.70;2.95;;;14.20;99.90;;;;;;10476321;28;20063;-25
2023/01/01 02:41:58;;;;;;;11.90;2.00;;;14.10;99.90;;;;;;10477646;28;20399;-26
2023/01/01 02:47:09;;;;;;;15.13;2.25;;;14.80;99.90;;;;;;10481760;28;20103;-27
2023/01/01 02:52:21;;;;;;;10.23;2.17;;;14.20;99.90;;;;;;10465371;28;20057;-26
2023/01/01 02:57:32;;;;;;;20.92;1.95;;;14.30;99.90;;;;;;10485559;28;20131;-26
2023/01/01 03:02:44;;;;;;;8.50;2.53;;;14.20;99.90;;;;;;10491744;28;20044;-26
2023/01/01 03:07:59;;;;;;;8.73;2.27;;;13.60;99.90;;;;;;10482834;28;20537;-27
2023/01/01 03:13:08;;;;;;;9.35;2.28;;;13.50;99.90;;;;;;10469023;28;20092;-27
2023/01/01 03:18:17;;;;;;;14.98;2.28;;;13.70;99.90;;;;;;10461673;28;20473;-26
2023/01/01 03:23:34;;;;;;;15.57;4.30;;;13.80;99.90;;;;;;10457251;28;20068;-26
2023/01/01 03:28:40;;;;;;;12.05;3.13;;;13.80;99.90;;;;;;10472474;28;20040;-27
2023/01/01 03:33:47;;;;;;;13.57;3.30;;;13.30;99.90;;;;;;10474193;28;20106;-24
2023/01/01 03:38:52;;;;;;;10.13;1.73;;;13.30;99.90;;;;;;10478370;28;20071;-27
2023/01/01 03:44:02;;;;;;;17.67;2.55;;;13.00;99.90;;;;;;10486029;28;20125;-34
2023/01/01 03:49:07;;;;;;;12.50;2.10;;;12.80;99.90;;;;;;10479324;28;20481;-27
2023/01/01 03:54:20;;;;;;;11.82;2.58;;;13.00;99.90;;;;;;10513554;28;20119;-28
2023/01/01 03:59:29;;;;;;;21.00;2.10;;;12.80;99.90;;;;;;10494139;28;20149;-28
2023/01/01 04:04:34;;;;;;;24.23;2.33;;;12.70;99.90;;;;;;10493613;28;20579;-27
2023/01/01 04:09:40;;;;;;;10.60;2.13;;;12.50;99.90;;;;;;10504716;28;20076;-26
2023/01/01 04:14:43;;;;;;;17.45;3.35;;;12.90;99.90;;;;;;10490223;28;20053;-25
2023/01/01 04:19:47;;;;;;;26.25;3.67;;;12.70;99.90;;;;;;10490966;28;20111;-27
2023/01/01 04:24:48;;;;;;;27.02;4.25;;;12.60;99.90;;;;;;10486204;28;20076;-29
2023/01/01 04:29:50;;;;;;;17.88;3.30;;;12.40;99.90;;;;;;10465994;28;20044;-29
2023/01/01 04:34:53;;;;;;;24.85;3.78;;;12.40;99.90;;;;;;10479655;28;20485;-25
2023/01/01 04:39:55;;;;;;;16.92;2.97;;;12.30;99.90;;;;;;10495076;28;20064;-29
2023/01/01 04:44:57;;;;;;;20.50;2.45;;;12.50;99.90;;;;;;10505804;28;20071;-27
2023/01/01 04:50:00;;;;;;;11.23;2.30;;;13.10;99.90;;;;;;10491361;28;20083;-26
2023/01/01 04:55:02;;;;;;;16.67;3.72;;;12.40;99.90;;;;;;10507120;28;20048;-26
2023/01/01 05:00:05;;;;;;;24.88;4.07;;;12.60;99.90;;;;;;10487579;28;20099;-25
2023/01/01 05:05:09;;;;;;;15.95;2.10;;;12.70;99.90;;;;;;10481169;28;20142;-26
2023/01/01 05:10:10;;;;;;;24.00;3.22;;;12.90;99.90;;;;;;10480184;28;20079;-27
2023/01/01 05:15:12;;;;;;;15.88;2.47;;;12.40;99.90;;;;;;10501677;28;20064;-26
2023/01/01 05:20:15;;;;;;;19.75;3.28;;;12.70;99.90;;;;;;10484399;28;20056;-29
2023/01/01 05:25:17;;;;;;;19.27;2.42;;;12.80;99.90;;;;;;10493064;28;20084;-28
2023/01/01 05:30:19;;;;;;;12.90;2.25;;;12.70;99.90;;;;;;10469501;28;20429;-26
2023/01/01 05:35:22;;;;;;;18.13;2.40;;;12.80;99.90;;;;;;10481687;28;20163;-27
2023/01/01 05:40:24;;;;;;;25.92;3.00;;;12.70;99.90;;;;;;10488989;28;20040;-25
2023/01/01 05:45:26;;;;;;;14.88;2.42;;;12.50;99.90;;;;;;10495519;28;20490;-26
2023/01/01 05:50:30;;;;;;;28.00;3.67;;;12.30;99.90;;;;;;10485393;28;20045;-26
2023/01/01 05:55:32;;;;;;;24.45;3.95;;;12.20;99.90;;;;;;10486932;28;20098;-26
2023/01/01 06:00:34;;;;;;;25.70;3.47;;;12.20;99.90;;;;;;10484440;28;20663;-27
2023/01/01 06:05:37;;;;;;;27.70;3.72;;;12.20;99.90;;;;;;10482180;28;20080;-24
2023/01/01 06:10:39;;;;;;;25.00;3.67;;;12.20;99.90;;;;;;10480935;28;20068;-26
2023/01/01 06:15:41;;;;;;;21.75;3.10;;;12.30;99.90;;;;;;10469451;28;20087;-27
2023/01/01 06:20:44;;;;;;;18.90;2.88;;;12.50;99.90;;;;;;10464798;28;20053;-29
2023/01/01 06:25:46;;;;;;;15.18;1.80;;;12.20;99.90;;;;;;10489249;28;20048;-25
2023/01/01 06:30:48;;;;;;;15.32;2.17;;;12.90;99.90;;;;;;10475627;28;20082;-28
2023/01/01 06:35:51;;;;;;;17.70;3.00;;;12.80;99.90;;;;;;10461994;28;20076;-28
2023/01/01 06:40:56;;;;;;;19.95;3.00;;;12.40;99.90;;;;;;10481449;28;20080;-28
2023/01/01 06:46:03;;;;;;;22.08;2.90;;;12.10;99.90;;;;;;10471851;28;20045;-25
2023/01/01 06:51:08;;;;;;;26.40;3.70;;;12.40;99.90;;;;;;10473537;28;20102;-26
2023/01/01 06:56:10;;;;;;;24.30;2.80;;;12.10;99.90;;;;;;10473183;28;20808;-25
2023/01/01 07:01:15;;;;;;;19.67;2.40;;;12.30;99.90;;;;;;10462393;28;20074;-24
2023/01/01 07:15:30;;;;;;;19.13;2.63;;;12.10;99.90;;;;;;10484710;27;20219;-28
2023/01/01 07:20:32;;;;;;;16.50;2.05;;;12.00;99.90;;;;;;10467628;28;20211;-26
2023/01/01 07:25:34;;;;;;;16.60;2.35;;;12.10;99.90;;;;;;10459283;28;20079;-27
2023/01/01 07:30:37;;;;;;;17.05;2.83;;;12.10;99.90;;;;;;10465830;28;20421;-26
2023/01/01 07:35:39;;;;;;;19.75;2.65;;;12.00;99.90;;;;;;10475256;28;20052;-26
2023/01/01 07:40:42;;;;;;;14.65;2.58;;;12.40;99.90;;;;;;10468249;28;20586;-26
2023/01/01 07:45:45;;;;;;;14.82;2.85;;;12.00;99.90;;;;;;10486428;28;20073;-25
2023/01/01 07:50:47;;;;;;;12.35;1.90;;;12.20;99.90;;;;;;10491282;28;20087;-28
2023/01/01 07:55:49;;;;;;;19.90;2.55;;;12.20;99.90;;;;;;10487026;28;20452;-26
2023/01/01 08:00:52;;;;;;;14.82;2.15;;;13.30;99.90;;;;;;10467323;28;20271;-28
2023/01/01 08:05:54;;;;;;;10.95;1.58;;;12.70;99.90;;;;;;10473128;28;20042;-29
2023/01/01 08:11:00;;;;;;;15.95;2.42;;;12.10;99.90;;;;;;10482968;28;20169;-26
2023/01/01 08:16:03;;;;;;;18.40;2.95;;;11.90;99.90;;;;;;10467860;28;20540;-28
2023/01/01 08:21:05;;;;;;;10.02;2.17;;;12.00;99.90;;;;;;10479743;28;20076;-27
2023/01/01 08:26:07;;;;;;;21.70;3.10;;;12.10;99.90;;;;;;10447863;28;20162;-27
2023/01/01 08:31:10;;;;;;;23.33;2.88;;;11.90;99.90;;;;;;10446666;28;20495;-25
2023/01/01 08:36:15;;;;;;;18.45;1.88;;;12.10;99.90;;;;;;10436698;28;20489;-29
2023/01/01 08:41:17;;;;;;;15.90;1.92;;;13.20;99.90;;;;;;10433232;28;20513;-28
2023/01/01 08:46:20;;;;;;;14.98;2.35;;;13.10;99.90;;;;;;10454116;28;20045;-26
2023/01/01 08:51:22;;;;;;;10.40;2.65;;;13.50;99.90;;;;;;10438067;28;20107;-25
2023/01/01 08:56:23;;;;;;;10.98;2.15;;;13.80;99.90;;;;;;10451890;28;20127;-27
2023/01/01 09:01:27;;;;;;;8.57;2.00;;;13.20;99.90;;;;;;10467720;28;20048;-28
2023/01/01 09:06:28;;;;;;;6.95;1.75;;;13.70;99.90;;;;;;10462740;28;20106;-26
2023/01/01 09:11:30;;;;;;;11.80;1.48;;;14.40;99.90;;;;;;10447842;28;20472;-27
2023/01/01 09:16:34;;;;;;;12.57;1.75;;;14.10;99.90;;;;;;10447310;28;20072;-28
2023/01/01 09:21:36;;;;;;;14.02;2.05;;;14.00;99.90;;;;;;10449843;28;20120;-28
2023/01/01 09:26:37;;;;;;;20.30;2.27;;;14.10;99.90;;;;;;10442720;28;20049;-28
2023/01/01 09:31:41;;;;;;;10.30;1.73;;;14.10;99.90;;;;;;10445121;28;20140;-28
2023/01/01 09:36:43;;;;;;;11.45;1.77;;;14.20;99.90;;;;;;10440120;28;20449;-28
2023/01/01 09:42:01;;;;;;;16.23;1.95;;;15.10;99.90;;;;;;10432680;28;20426;-27
2023/01/01 09:47:13;;;;;;;12.10;2.42;;;15.00;99.90;;;;;;10432993;28;20165;-27
2023/01/01 09:52:16;;;;;;;19.47;2.47;;;15.30;93.40;;;;;;10426094;28;20175;-27
2023/01/01 09:57:18;;;;;;;12.93;1.63;;;13.90;99.00;;;;;;10439258;28;20045;-26
2023/01/01 10:02:35;;;;;;;9.50;1.43;;;12.70;99.90;;;;;;10445548;28;20566;-27
2023/01/01 10:07:43;;;;;;;10.50;2.30;;;13.00;99.90;;;;;;10424485;28;20084;-26
2023/01/01 10:12:51;;;;;;;11.65;1.67;;;12.50;99.90;;;;;;10444176;28;20055;-27
2023/01/01 10:17:58;;;;;;;19.17;2.30;;;12.30;99.90;;;;;;10444783;28;20045;-27
2023/01/01 10:23:07;;;;;;;10.90;1.60;;;12.20;99.90;;;;;;10440306;28;20041;-29
2023/01/01 10:28:19;;;;;;;12.55;2.00;;;12.50;99.90;;;;;;10451197;28;20102;-28
2023/01/01 10:33:22;;;;;;;16.38;2.40;;;12.70;99.90;;;;;;10461769;28;20080;-27
2023/01/01 10:38:25;;;;;;;21.92;2.40;;;12.70;99.90;;;;;;10449161;28;20068;-27
2023/01/01 10:43:27;;;;;;;12.48;1.90;;;12.80;99.90;;;;;;10430742;28;20064;-26
2023/01/01 10:48:32;;;;;;;11.35;2.13;;;12.70;99.90;;;;;;10435259;28;20103;-26
2023/01/01 10:53:37;;;;;;;16.42;2.88;;;12.80;99.90;;;;;;10424500;28;20079;-25
2023/01/01 10:58:42;;;;;;;18.27;3.22;;;13.10;99.90;;;;;;10438808;28;20185;-23
2023/01/01 11:03:57;;;;;;;10.13;1.70;;;13.20;99.90;;;;;;10423696;28;20103;-25
2023/01/01 11:09:02;;;;;;;14.10;2.30;;;13.10;99.90;;;;;;10423811;28;20048;-26
2023/01/01 11:14:05;;;;;;;13.75;1.90;;;13.10;99.90;;;;;;10420167;28;20056;-26
2023/01/01 11:19:17;;;;;;;14.38;2.58;;;13.10;99.90;;;;;;10418593;28;20538;-25
2023/01/01 11:24:22;;;;;;;15.63;1.85;;;12.70;99.90;;;;;;10426437;28;20456;-25
2023/01/01 11:29:27;;;;;;;16.77;2.42;;;12.60;99.90;;;;;;10447442;28;20148;-27
2023/01/01 11:34:33;;;;;;;8.88;1.58;;;12.90;99.90;;;;;;10426842;28;20140;-26
2023/01/01 11:39:36;;;;;;;10.73;1.77;;;13.00;99.90;;;;;;10418473;28;20530;-25
2023/01/01 11:44:43;;;;;;;7.75;2.05;;;12.60;99.90;;;;;;10443197;28;20106;-25
2023/01/01 11:49:53;;;;;;;14.77;2.72;;;12.70;99.90;;;;;;10441786;28;20042;-24
2023/01/01 11:55:04;;;;;;;19.08;2.70;;;12.70;99.90;;;;;;10443930;28;20559;-27
2023/01/01 12:00:12;;;;;;;14.63;2.25;;;12.90;99.90;;;;;;10443559;28;20148;-25
2023/01/01 12:05:22;;;;;;;16.70;2.55;;;13.20;99.90;;;;;;10456756;28;20040;-26
2023/01/01 12:10:27;;;;;;;7.05;1.42;;;13.00;99.90;;;;;;10438815;28;20062;-27
2023/01/01 12:15:35;;;;;;;13.55;2.15;;;13.10;99.90;;;;;;10452779;28;20052;-26
2023/01/01 12:20:44;;;;;;;13.48;2.28;;;13.00;99.90;;;;;;10441949;28;20049;-24
2023/01/01 12:25:52;;;;;;;15.45;2.08;;;13.20;99.90;;;;;;10444954;28;20127;-26
2023/01/01 12:31:01;;;;;;;16.40;2.55;;;13.00;99.90;;;;;;10448960;28;20060;-27
2023/01/01 12:36:19;;;;;;;19.58;2.65;;;12.80;99.90;;;;;;10442315;28;20139;-26
2023/01/01 12:41:30;;;;;;;5.88;1.40;;;12.90;99.90;;;;;;10449575;28;20127;-26
2023/01/01 12:46:44;;;;;;;16.48;1.98;;;13.20;99.90;;;;;;10439555;28;20053;-26
2023/01/01 12:51:57;;;;;;;14.82;2.00;;;12.70;99.90;;;;;;10447420;28;20076;-27
2023/01/01 12:57:04;;;;;;;15.45;2.17;;;13.30;99.90;;;;;;10457760;28;20069;-27
2023/01/01 13:02:14;;;;;;;18.10;2.22;;;13.10;99.90;;;;;;10436350;28;20736;-26
2023/01/01 13:07:29;;;;;;;10.07;1.52;;;13.40;99.90;;;;;;10438337;28;20149;-26
2023/01/01 13:12:31;;;;;;;11.48;1.90;;;13.10;99.90;;;;;;10444913;28;20115;-25
2023/01/01 13:17:34;;;;;;;21.10;2.30;;;13.10;99.90;;;;;;10444693;28;20087;-26
2023/01/01 13:22:41;;;;;;;7.80;1.37;;;13.00;99.90;;;;;;10449402;28;20107;-25
2023/01/01 13:28:11;;;;;;;10.68;1.95;;;13.70;99.90;;;;;;10436088;28;20502;-27
2023/01/01 13:33:27;;;;;;;14.95;2.22;;;13.80;99.90;;;;;;10425948;28;20053;-26
2023/01/01 13:44:16;;;;;;;16.55;3.13;;;13.70;99.90;;;;;;10464099;28;20762;-26
2023/01/01 13:49:34;;;;;;;16.58;2.63;;;13.30;99.90;;;;;;10417862;28;20091;-30
2023/01/01 13:55:05;;;;;;;17.05;3.78;;;13.10;99.90;;;;;;10438403;28;20053;-26
2023/01/01 14:00:19;;;;;;;15.73;2.20;;;13.00;99.90;;;;;;10440289;28;20401;-26
2023/01/01 14:05:27;;;;;;;30.98;3.97;;;14.10;99.90;;;;;;10450670;28;20068;-26
2023/01/01 14:10:31;;;;;;;18.20;3.28;;;14.10;99.90;;;;;;10442917;28;20154;-29
2023/01/01 14:15:37;;;;;;;14.23;2.85;;;15.00;99.90;;;;;;10435301;28;20053;-26
2023/01/01 14:20:42;;;;;;;15.68;2.42;;;15.30;99.90;;;;;;10448768;28;20539;-27
2023/01/01 14:25:45;;;;;;;6.10;1.70;;;16.10;99.90;;;;;;10423547;28;20517;-28
2023/01/01 14:30:49;;;;;;;7.32;1.33;;;15.50;99.90;;;;;;10450682;28;20095;-26
2023/01/01 14:35:55;;;;;;;7.40;1.85;;;16.20;99.90;;;;;;10431178;28;20458;-26
2023/01/01 14:41:05;;;;;;;10.73;2.20;;;15.70;99.90;;;;;;10433230;28;20089;-26
2023/01/01 14:46:13;;;;;;;13.77;2.40;;;15.20;99.90;;;;;;10418559;28;20387;-26
2023/01/01 14:51:18;;;;;;;3.05;1.02;;;15.40;99.90;;;;;;10415985;28;20133;-26
2023/01/01 14:56:28;;;;;;;3.50;1.30;;;15.80;99.90;;;;;;10390266;28;20136;-27
2023/01/01 15:01:31;;;;;;;8.38;1.83;;;16.00;99.90;;;;;;10379486;28;20077;-28
2023/01/01 15:06:33;;;;;;;8.75;2.40;;;16.20;99.90;;;;;;10388142;28;20073;-26
2023/01/01 15:11:35;;;;;;;11.35;2.45;;;16.10;99.90;;;;;;10386304;28;20077;-28
2023/01/01 15:16:38;;;;;;;19.13;2.70;;;15.60;99.50;;;;;;10380084;28;20072;-26
2023/01/01 15:21:41;;;;;;;10.13;2.13;;;15.00;99.90;;;;;;10377277;28;20096;-27
2023/01/01 15:26:48;;;;;;;17.83;3.55;;;14.50;99.90;;;;;;10402133;28;20061;-26
2023/01/01 15:31:56;;;;;;;11.10;2.13;;;14.80;99.90;;;;;;10392521;28;20137;-26
2023/01/01 15:37:09;;;;;;;7.32;1.50;;;14.90;99.90;;;;;;10407624;28;20042;-26
2023/01/01 15:42:23;;;;;;;5.25;1.42;;;16.10;99.90;;;;;;10412775;28;20053;-25
2023/01/01 15:47:26;;;;;;;5.97;1.42;;;16.30;99.90;;;;;;10408247;28;20081;-26
2023/01/01 15:52:28;;;;;;;5.15;1.48;;;16.30;99.90;;;;;;10392134;28;20049;-25
2023/01/01 15:57:30;;;;;;;9.57;2.53;;;17.00;98.20;;;;;;10396822;28;20045;-25
2023/01/01 16:02:36;;;;;;;5.10;1.52;;;16.30;95.40;;;;;;10395973;28;20153;-26
2023/01/01 16:07:38;;;;;;;4.57;1.10;;;16.90;99.50;;;;;;10389506;28;20124;-26
2023/01/01 16:12:40;;;;;;;12.88;2.50;;;17.10;98.40;;;;;;10404064;28;20099;-27
2023/01/01 16:17:44;;;;;;;5.07;1.33;;;17.10;96.30;;;;;;10403397;28;20126;-29
2023/01/01 16:22:46;;;;;;;10.00;4.63;;;17.20;98.40;;;;;;10411939;28;20089;-26
2023/01/01 16:27:48;;;;;;;4.65;2.22;;;16.90;97.80;;;;;;10388675;28;20089;-29
2023/01/01 16:32:51;;;;;;;9.98;2.55;;;16.80;99.70;;;;;;10408663;28;20069;-26
2023/01/01 16:37:53;;;;;;;16.00;3.25;;;16.90;99.00;;;;;;10396503;28;20070;-27
2023/01/01 16:42:55;;;;;;;9.97;2.30;;;16.30;96.80;;;;;;10390998;28;20062;-26
2023/01/01 16:47:58;;;;;;;7.83;1.60;;;16.20;99.20;;;;;;10397385;28;20140;-26
2023/01/01 16:53:00;;;;;;;5.60;1.65;;;15.80;99.90;;;;;;10407213;28;20092;-26
2023/01/01 16:58:02;;;;;;;7.07;1.93;;;17.00;97.50;;;;;;10407382;28;20055;-29
2023/01/01 17:03:05;;;;;;;4.87;1.63;;;17.30;97.20;;;;;;10400036;28;20140;-26
2023/01/01 17:08:07;;;;;;;3.38;1.63;;;17.00;99.40;;;;;;10406337;28;20053;-28
2023/01/01 17:13:09;;;;;;;6.00;1.80;;;17.60;96.80;;;;;;10397430;28;20132;-26
2023/01/01 17:18:12;;;;;;;3.97;1.73;;;17.90;95.00;;;;;;10384607;28;20081;-27
2023/01/01 17:23:14;;;;;;;5.35;1.70;;;17.90;95.00;;;;;;10393035;28;20551;-25
2023/01/01 17:28:16;;;;;;;6.43;2.10;;;17.00;95.60;;;;;;10393458;28;20106;-27
2023/01/01 17:33:19;;;;;;;6.47;2.13;;;15.30;99.90;;;;;;10388691;28;20049;-25
2023/01/01 17:38:21;;;;;;;3.88;1.90;;;16.40;99.90;;;;;;10386593;28;20158;-26
2023/01/01 17:43:23;;;;;;;4.03;1.90;;;17.40;97.40;;;;;;10399982;28;20063;-24
2023/01/01 17:48:26;;;;;;;3.53;1.70;;;17.90;95.20;;;;;;10392809;28;20104;-26
2023/01/01 17:53:28;;;;;;;14.77;6.93;;;18.10;94.40;;;;;;10401209;28;20496;-26
2023/01/01 17:58:31;;;;;;;4.73;1.70;;;18.00;94.70;;;;;;10396837;28;20104;-26
2023/01/01 18:03:34;;;;;;;8.02;2.15;;;18.00;94.80;;;;;;10395675;28;20146;-26
2023/01/01 18:08:36;;;;;;;4.25;2.00;;;18.00;94.80;;;;;;10388796;28;20042;-26
2023/01/01 18:13:38;;;;;;;5.43;2.30;;;18.00;94.70;;;;;;10384381;28;20096;-26
2023/01/01 18:18:41;;;;;;;14.02;5.07;;;18.10;94.10;;;;;;10400310;28;20470;-26
2023/01/01 18:23:43;;;;;;;17.13;6.28;;;18.20;93.60;;;;;;10385032;28;20119;-25
2023/01/01 18:28:45;;;;;;;19.37;6.27;;;18.00;94.50;;;;;;10400694;28;20129;-26
2023/01/01 18:33:48;;;;;;;21.90;7.05;;;18.10;94.80;;;;;;10392985;28;20471;-26
2023/01/01 18:38:56;;;;;;;25.13;7.72;;;18.00;94.70;;;;;;10413151;28;20072;-27
2023/01/01 18:43:58;;;;;;;24.42;6.35;;;18.10;94.40;;;;;;10406940;28;20050;-27
2023/01/01 18:49:02;;;;;;;13.20;5.60;;;18.00;94.30;;;;;;10398078;28;20053;-25
2023/01/01 18:54:12;;;;;;;18.17;5.85;;;18.00;94.20;;;;;;10420770;28;20081;-28
2023/01/01 18:59:21;;;;;;;12.13;5.28;;;18.10;93.90;;;;;;10406976;28;20072;-26
2023/01/01 19:04:24;;;;;;;17.23;5.63;;;18.00;94.20;;;;;;10398598;28;20046;-25
2023/01/01 19:09:26;;;;;;;15.15;5.00;;;18.00;94.30;;;;;;10412836;28;20138;-25
2023/01/01 19:14:31;;;;;;;12.10;3.63;;;17.70;95.10;;;;;;10404563;28;20045;-27
2023/01/01 19:19:39;;;;;;;11.05;3.95;;;16.70;98.60;;;;;;10403432;28;20144;-27
2023/01/01 19:24:43;;;;;;;8.15;2.80;;;16.20;99.90;;;;;;10419517;28;20425;-26
2023/01/01 19:29:46;;;;;;;12.50;3.90;;;15.40;99.90;;;;;;10407840;28;20050;-26
2023/01/01 19:34:49;;;;;;;6.72;3.25;;;15.60;99.90;;;;;;10420273;28;20053;-25
2023/01/01 19:39:51;;;;;;;10.25;3.55;;;16.40;99.90;;;;;;10387743;28;22270;-27
2023/01/01 19:44:53;;;;;;;5.60;2.50;;;15.50;99.90;;;;;;10390290;28;20490;-26
2023/01/01 19:49:57;;;;;;;4.85;2.75;;;16.30;99.90;;;;;;10400510;28;20133;-26
2023/01/01 19:54:59;;;;;;;5.63;2.83;;;17.50;97.10;;;;;;10406522;28;20439;-30
2023/01/01 20:00:01;;;;;;;10.32;3.17;;;16.90;99.80;;;;;;10409152;28;20081;-27
2023/01/01 20:05:05;;;;;;;7.85;3.05;;;17.50;97.00;;;;;;10401871;28;20557;-26
2023/01/01 20:10:08;;;;;;;7.28;3.47;;;17.70;96.00;;;;;;10406554;28;20076;-26
2023/01/01 20:15:11;;;;;;;7.45;3.65;;;17.80;95.70;;;;;;10406232;28;20123;-26
2023/01/01 20:20:14;;;;;;;13.00;3.58;;;17.80;95.90;;;;;;10389540;28;20136;-28
2023/01/01 20:25:16;;;;;;;5.90;3.10;;;18.00;95.20;;;;;;10394496;28;20438;-26
2023/01/01 20:30:18;;;;;;;14.98;3.80;;;17.70;96.30;;;;;;10385437;28;20115;-26
2023/01/01 20:40:37;;;;;;;8.63;2.58;;;18.00;94.80;;;;;;10402240;28;20570;-27
2023/01/01 20:45:39;;;;;;;4.35;2.20;;;18.10;94.80;;;;;;10403725;28;20148;-26
2023/01/01 20:50:42;;;;;;;9.53;3.13;;;17.60;96.50;;;;;;10387403;28;20625;-25
2023/01/01 20:55:44;;;;;;;10.85;2.53;;;18.20;94.40;;;;;;10399890;28;20930;-26
2023/01/01 21:00:46;;;;;;;7.82;2.67;;;18.10;94.50;;;;;;10396665;28;20104;-25
2023/01/01 21:05:49;;;;;;;7.63;2.63;;;18.20;94.40;;;;;;10392657;28;20064;-26
2023/01/01 21:10:51;;;;;;;6.47;2.25;;;18.10;94.70;;;;;;10388689;28;20092;-24
2023/01/01 21:15:55;;;;;;;4.93;3.10;;;18.00;95.40;;;;;;10374051;28;20057;-25
2023/01/01 21:21:00;;;;;;;5.35;2.85;;;17.50;97.00;;;;;;10395098;28;20076;-26
2023/01/01 21:26:07;;;;;;;9.57;2.97;;;18.00;95.30;;;;;;10412059;28;20110;-26
2023/01/01 21:31:12;;;;;;;6.30;3.30;;;18.10;94.50;;;;;;10406220;28;20036;-27
2023/01/01 21:36:18;;;;;;;8.35;3.38;;;17.90;95.80;;;;;;10402346;28;20081;-29
2023/01/01 21:41:22;;;;;;;8.73;3.90;;;18.00;94.50;;;;;;10404875;28;20068;-27
2023/01/01 21:46:45;;;;;;;8.63;3.75;;;17.90;95.00;;;;;;10408776;28;20384;-26
2023/01/01 21:51:53;;;;;;;5.63;3.40;;;18.00;94.70;;;;;;10392353;28;20463;-26
2023/01/01 21:56:57;;;;;;;8.43;3.75;;;17.90;95.20;;;;;;10400985;28;20162;-23
2023/01/01 22:02:24;;;;;;;7.13;3.67;;;17.80;95.40;;;;;;10397852;28;20076;-26
2023/01/01 22:07:31;;;;;;;5.40;3.10;;;17.30;95.30;;;;;;10397461;28;20073;-25
2023/01/01 22:12:36;;;;;;;12.70;3.38;;;17.50;96.00;;;;;;10403888;28;20557;-26
2023/01/01 22:17:39;;;;;;;6.63;3.75;;;15.20;99.90;;;;;;10406391;28;20163;-28
2023/01/01 22:22:43;;;;;;;6.57;3.38;;;17.30;98.50;;;;;;10406333;28;20050;-27
2023/01/01 22:27:45;;;;;;;8.07;3.63;;;14.10;99.90;;;;;;10402684;28;20100;-25
2023/01/01 22:32:51;;;;;;;9.40;3.17;;;16.60;99.90;;;;;;10418690;28;20060;-27
2023/01/01 22:37:56;;;;;;;7.88;4.15;;;16.00;99.80;;;;;;10401462;28;20062;-26
2023/01/01 22:43:02;;;;;;;4.82;2.85;;;17.30;98.70;;;;;;10401385;28;20913;-26
2023/01/01 22:48:06;;;;;;;5.32;2.08;;;17.80;95.10;;;;;;10394621;28;20140;-29
2023/01/01 22:53:10;;;;;;;4.93;2.10;;;17.70;96.00;;;;;;10404867;28;20168;-25
2023/01/01 22:58:12;;;;;;;4.22;2.30;;;17.70;95.80;;;;;;10403471;28;20057;-25
2023/01/01 23:03:14;;;;;;;3.85;2.10;;;17.90;95.30;;;;;;10405671;28;20395;-25
2023/01/01 23:08:17;;;;;;;6.40;1.93;;;17.70;96.00;;;;;;10399678;28;20567;-26
2023/01/01 23:18:38;;;;;;;3.97;1.90;;;17.40;97.10;;;;;;10421397;28;20053;-27
2023/01/01 23:23:43;;;;;;;2.92;1.83;;;17.80;95.70;;;;;;10411905;28;20141;-27
2023/01/01 23:28:45;;;;;;;3.20;1.73;;;16.20;99.90;;;;;;10407010;28;20045;-26
2023/01/01 23:33:47;;;;;;;10.02;2.97;;;15.70;99.90;;;;;;10412970;28;20054;-26
2023/01/01 23:38:50;;;;;;;7.70;2.80;;;15.90;99.90;;;;;;10407786;28;20057;-26
2023/01/01 23:43:53;;;;;;;10.18;4.35;;;14.60;99.90;;;;;;10406638;28;20073;-26
2023/01/01 23:48:55;;;;;;;8.85;3.50;;;13.30;99.90;;;;;;10413335;28;20049;-25
2023/01/01 23:53:58;;;;;;;7.28;3.22;;;15.00;99.90;;;;;;10409278;28;20638;-26
2023/01/01 23:59:00;;;;;;;5.93;3.13;;;14.90;99.90;;;;;;10394395;28;20046;-26
